createdAt,value
2023-02-22T00:01:38.086Z,8.93
2023-02-22T00:03:40.035Z,8.73
2023-02-22T00:05:47.248Z,8.43
2023-02-22T00:07:49.464Z,18.20
2023-02-22T00:09:51.352Z,10.27
2023-02-22T00:11:53.007Z,9.37
2023-02-22T00:13:57.236Z,7.03
2023-02-22T00:16:00.497Z,5.80
2023-02-22T00:18:03.534Z,8.83
2023-02-22T00:20:08.581Z,10.73
2023-02-22T00:22:10.514Z,6.43
2023-02-22T00:24:23.243Z,7.50
2023-02-22T00:26:25.079Z,7.80
2023-02-22T00:28:27.311Z,6.50
2023-02-22T00:30:31.990Z,8.47
2023-02-22T00:32:34.180Z,16.03
2023-02-22T00:34:35.832Z,8.60
2023-02-22T00:36:37.503Z,7.40
2023-02-22T00:38:40.591Z,8.53
2023-02-22T00:40:42.512Z,8.70
2023-02-22T00:42:44.558Z,8.10
2023-02-22T00:44:46.563Z,6.43
2023-02-22T00:46:49.652Z,7.10
2023-02-22T00:48:51.477Z,7.37
2023-02-22T00:50:55.490Z,8.40
2023-02-22T00:52:58.711Z,6.80
2023-02-22T00:55:00.586Z,8.13
2023-02-22T00:57:03.676Z,9.00
2023-02-22T00:59:05.500Z,10.63
2023-02-22T01:01:07.188Z,9.30
2023-02-22T01:03:11.556Z,8.10
2023-02-22T01:05:14.243Z,10.23
2023-02-22T01:07:16.294Z,8.73
2023-02-22T01:09:17.980Z,8.73
2023-02-22T01:11:19.652Z,8.33
2023-02-22T01:13:21.659Z,10.50
2023-02-22T01:15:28.903Z,8.57
2023-02-22T01:17:30.768Z,7.87
2023-02-22T01:19:32.505Z,11.93
2023-02-22T01:21:34.210Z,7.50
2023-02-22T01:23:35.900Z,7.13
2023-02-22T01:25:37.814Z,8.30
2023-02-22T01:27:39.554Z,8.77
2023-02-22T01:29:41.365Z,11.70
2023-02-22T01:31:44.198Z,8.43
2023-02-22T01:33:46.015Z,6.83
2023-02-22T01:35:48.395Z,7.90
2023-02-22T01:37:50.088Z,7.40
2023-02-22T01:39:51.744Z,10.83
2023-02-22T01:41:53.938Z,6.27
2023-02-22T01:43:55.637Z,10.90
2023-02-22T01:46:00.615Z,7.93
2023-02-22T01:48:11.448Z,8.97
2023-02-22T01:50:13.246Z,9.17
2023-02-22T01:52:21.359Z,7.97
2023-02-22T01:54:37.750Z,9.07
2023-02-22T01:56:45.888Z,7.77
2023-02-22T01:58:52.710Z,10.07
2023-02-22T02:00:55.175Z,9.90
2023-02-22T02:03:04.479Z,8.07
2023-02-22T02:05:08.417Z,10.67
2023-02-22T02:07:21.044Z,7.90
2023-02-22T02:09:37.500Z,10.17
2023-02-22T02:11:41.073Z,9.43
2023-02-22T02:13:42.818Z,7.70
2023-02-22T02:15:44.950Z,9.33
2023-02-22T02:17:48.900Z,13.97
2023-02-22T02:20:17.954Z,13.47
2023-02-22T02:22:34.383Z,13.70
2023-02-22T02:24:57.552Z,11.50
2023-02-22T02:27:13.321Z,8.13
2023-02-22T02:29:30.144Z,11.37
2023-02-22T02:32:03.317Z,15.07
2023-02-22T02:34:25.172Z,8.23
2023-02-22T02:37:04.764Z,10.00
2023-02-22T02:39:25.105Z,12.07
2023-02-22T02:42:02.155Z,13.07
2023-02-22T02:44:14.633Z,10.80
2023-02-22T02:46:30.996Z,17.03
2023-02-22T02:48:34.903Z,10.87
2023-02-22T02:50:49.516Z,14.30
2023-02-22T02:52:55.619Z,13.97
2023-02-22T02:54:58.060Z,10.33
2023-02-22T02:56:59.941Z,14.40
2023-02-22T02:59:01.614Z,10.43
2023-02-22T03:01:04.518Z,10.00
2023-02-22T03:03:31.081Z,9.47
2023-02-22T03:05:41.954Z,7.60
2023-02-22T03:08:07.632Z,9.37
2023-02-22T03:10:33.371Z,9.47
2023-02-22T03:13:05.958Z,10.50
2023-02-22T03:15:33.940Z,7.10
2023-02-22T03:17:45.376Z,14.83
2023-02-22T03:20:09.627Z,7.60
2023-02-22T03:22:26.360Z,16.20
2023-02-22T03:24:34.541Z,13.17
2023-02-22T03:26:47.200Z,8.30
2023-02-22T03:28:51.376Z,10.47
2023-02-22T03:31:04.524Z,8.03
2023-02-22T03:33:12.402Z,11.30
2023-02-22T03:35:24.592Z,9.40
2023-02-22T03:37:33.990Z,9.63
2023-02-22T03:39:37.500Z,13.47
2023-02-22T03:41:40.819Z,10.43
2023-02-22T03:43:50.463Z,7.80
2023-02-22T03:45:53.208Z,8.70
2023-02-22T03:48:10.286Z,6.77
2023-02-22T03:50:16.815Z,11.17
2023-02-22T03:52:19.563Z,9.63
2023-02-22T03:54:21.807Z,8.93
2023-02-22T03:56:35.702Z,9.60
2023-02-22T03:58:40.182Z,10.23
2023-02-22T04:00:44.439Z,9.33
2023-02-22T04:02:46.485Z,9.57
2023-02-22T04:04:48.876Z,8.23
2023-02-22T04:06:51.191Z,11.47
2023-02-22T04:08:53.071Z,8.87
2023-02-22T04:10:54.806Z,8.77
2023-02-22T04:12:56.543Z,7.20
2023-02-22T04:14:58.212Z,8.57
2023-02-22T04:17:00.207Z,7.77
2023-02-22T04:19:01.919Z,7.10
2023-02-22T04:21:04.391Z,10.67
2023-02-22T04:23:06.531Z,10.90
2023-02-22T04:25:08.430Z,7.87
2023-02-22T04:27:10.075Z,7.80
2023-02-22T04:29:11.740Z,8.27
2023-02-22T04:31:13.525Z,8.50
2023-02-22T04:33:16.306Z,10.00
2023-02-22T04:35:18.198Z,7.90
2023-02-22T04:37:19.908Z,6.80
2023-02-22T04:39:21.672Z,8.77
2023-02-22T04:41:25.481Z,9.40
2023-02-22T04:43:27.416Z,9.60
2023-02-22T04:45:29.103Z,7.60
2023-02-22T04:47:30.735Z,7.00
2023-02-22T04:49:32.490Z,11.27
2023-02-22T04:51:35.844Z,7.27
2023-02-22T04:53:37.486Z,7.30
2023-02-22T04:55:39.184Z,6.63
2023-02-22T04:57:40.823Z,7.20
2023-02-22T04:59:42.505Z,6.47
2023-02-22T05:01:44.629Z,7.40
2023-02-22T05:03:46.282Z,7.37
2023-02-22T05:05:48.120Z,7.90
2023-02-22T05:07:50.456Z,7.07
2023-02-22T05:09:52.127Z,8.60
2023-02-22T05:11:53.935Z,6.57
2023-02-22T05:13:55.847Z,7.50
2023-02-22T05:15:57.566Z,11.23
2023-02-22T05:17:59.252Z,9.60
2023-02-22T05:20:01.662Z,8.20
2023-02-22T05:22:03.661Z,8.90
2023-02-22T05:24:05.628Z,8.80
2023-02-22T05:26:08.760Z,8.10
2023-02-22T05:28:14.142Z,9.30
2023-02-22T05:30:16.530Z,11.33
2023-02-22T05:32:18.319Z,9.63
2023-02-22T05:34:20.121Z,9.57
2023-02-22T05:36:21.851Z,9.80
2023-02-22T05:38:23.622Z,6.67
2023-02-22T05:40:26.822Z,9.13
2023-02-22T05:42:28.577Z,10.80
2023-02-22T05:44:30.815Z,7.10
2023-02-22T05:46:32.705Z,8.00
2023-02-22T05:48:34.559Z,8.20
2023-02-22T05:50:36.226Z,10.13
2023-02-22T05:52:38.607Z,8.70
2023-02-22T05:54:40.293Z,8.70
2023-02-22T05:56:42.235Z,8.43
2023-02-22T05:58:43.835Z,8.60
2023-02-22T06:00:45.613Z,13.00
2023-02-22T06:02:47.270Z,8.10
2023-02-22T06:04:49.062Z,9.07
2023-02-22T06:06:50.832Z,10.20
2023-02-22T06:08:52.472Z,10.10
2023-02-22T06:10:54.471Z,9.03
2023-02-22T06:12:57.843Z,8.43
2023-02-22T06:14:59.506Z,8.33
2023-02-22T06:17:01.300Z,8.90
2023-02-22T06:19:03.140Z,8.77
2023-02-22T06:21:09.787Z,9.23
2023-02-22T06:23:11.498Z,9.53
2023-02-22T06:25:16.103Z,7.50
2023-02-22T06:27:17.856Z,10.50
2023-02-22T06:29:19.629Z,9.53
2023-02-22T06:31:21.365Z,10.10
2023-02-22T06:33:23.109Z,10.37
2023-02-22T06:35:24.770Z,9.53
2023-02-22T06:37:26.460Z,9.70
2023-02-22T06:39:28.185Z,11.57
2023-02-22T06:41:29.966Z,7.70
2023-02-22T06:43:31.743Z,11.40
2023-02-22T06:45:33.433Z,9.90
2023-02-22T06:47:40.053Z,9.53
2023-02-22T06:49:41.857Z,9.87
2023-02-22T06:51:43.855Z,10.10
2023-02-22T06:53:45.623Z,10.80
2023-02-22T06:55:47.239Z,12.33
2023-02-22T06:57:48.952Z,8.43
2023-02-22T06:59:50.696Z,7.37
2023-02-22T07:01:52.364Z,7.60
2023-02-22T07:03:54.070Z,9.47
2023-02-22T07:05:55.850Z,11.17
2023-02-22T07:08:04.995Z,8.97
2023-02-22T07:10:08.436Z,10.03
2023-02-22T07:12:10.230Z,9.77
2023-02-22T07:14:11.867Z,7.87
2023-02-22T07:16:13.601Z,10.47
2023-02-22T07:18:16.209Z,8.67
2023-02-22T07:20:20.601Z,8.40
2023-02-22T07:22:22.467Z,9.10
2023-02-22T07:24:24.172Z,8.47
2023-02-22T07:26:27.217Z,7.67
2023-02-22T07:28:29.092Z,7.57
2023-02-22T07:30:34.021Z,8.07
2023-02-22T07:32:35.957Z,10.57
2023-02-22T07:34:37.671Z,7.40
2023-02-22T07:36:39.590Z,8.30
2023-02-22T07:38:41.272Z,8.77
2023-02-22T07:40:43.658Z,10.13
2023-02-22T07:43:16.020Z,8.70
2023-02-22T07:45:18.397Z,8.90
2023-02-22T07:47:20.699Z,6.70
2023-02-22T07:49:22.403Z,9.70
2023-02-22T07:51:24.123Z,11.70
2023-02-22T07:53:31.813Z,9.07
2023-02-22T07:55:34.436Z,9.47
2023-02-22T07:57:36.309Z,11.73
2023-02-22T07:59:37.965Z,8.40
2023-02-22T08:01:39.942Z,7.67
2023-02-22T08:03:42.545Z,8.53
2023-02-22T08:05:50.139Z,7.90
2023-02-22T08:07:52.138Z,14.47
2023-02-22T08:09:53.862Z,7.97
2023-02-22T08:11:55.531Z,10.37
2023-02-22T08:13:57.180Z,8.67
2023-02-22T08:15:58.849Z,11.37
2023-02-22T08:18:02.605Z,8.90
2023-02-22T08:20:04.646Z,11.77
2023-02-22T08:22:06.380Z,8.27
2023-02-22T08:24:08.140Z,7.97
2023-02-22T08:26:15.739Z,12.63
2023-02-22T08:28:23.436Z,10.93
2023-02-22T08:30:26.146Z,7.97
2023-02-22T08:32:28.076Z,8.00
2023-02-22T08:34:29.811Z,8.00
2023-02-22T08:36:33.068Z,6.90
2023-02-22T08:38:34.925Z,7.30
2023-02-22T08:40:37.833Z,8.37
2023-02-22T08:42:39.754Z,10.97
2023-02-22T08:44:41.368Z,8.20
2023-02-22T08:46:43.026Z,8.77
2023-02-22T08:48:51.795Z,8.33
2023-02-22T08:50:53.612Z,7.57
2023-02-22T08:52:59.333Z,8.73
2023-02-22T08:55:01.418Z,9.13
2023-02-22T08:57:03.206Z,9.50
2023-02-22T08:59:05.119Z,11.03
2023-02-22T09:01:06.904Z,10.43
2023-02-22T09:03:11.839Z,9.67
2023-02-22T09:05:13.541Z,8.30
2023-02-22T09:07:16.376Z,9.20
2023-02-22T09:09:21.327Z,9.73
2023-02-22T09:11:23.373Z,9.40
2023-02-22T09:13:25.239Z,8.50
2023-02-22T09:15:28.007Z,10.40
2023-02-22T09:17:30.290Z,9.50
2023-02-22T09:19:32.248Z,10.07
2023-02-22T09:21:33.930Z,11.40
2023-02-22T09:23:35.677Z,10.40
2023-02-22T09:25:40.768Z,10.10
2023-02-22T09:27:43.631Z,9.17
2023-02-22T09:29:48.228Z,29.80
2023-02-22T09:31:52.355Z,11.37
2023-02-22T09:33:54.076Z,10.43
2023-02-22T09:35:55.971Z,8.73
2023-02-22T09:38:00.280Z,7.93
2023-02-22T09:40:02.134Z,9.17
2023-02-22T09:42:38.136Z,9.30
2023-02-22T09:44:42.926Z,10.10
2023-02-22T09:46:45.772Z,9.00
2023-02-22T09:49:20.277Z,12.23
2023-02-22T09:51:23.159Z,11.43
2023-02-22T09:53:42.033Z,12.83
2023-02-22T09:55:50.559Z,12.87
2023-02-22T09:57:55.449Z,11.13
2023-02-22T10:00:01.041Z,11.33
2023-02-22T10:02:16.185Z,15.33
2023-02-22T10:04:53.490Z,10.77
2023-02-22T10:07:06.992Z,10.73
2023-02-22T10:09:10.530Z,11.90
2023-02-22T10:11:30.028Z,9.10
2023-02-22T10:13:43.643Z,15.40
2023-02-22T10:15:56.043Z,10.63
2023-02-22T10:18:24.062Z,13.80
2023-02-22T10:20:48.233Z,9.80
2023-02-22T10:23:12.411Z,12.13
2023-02-22T10:25:21.722Z,13.10
2023-02-22T10:27:31.863Z,12.60
2023-02-22T10:29:42.656Z,17.00
2023-02-22T10:31:47.089Z,12.47
2023-02-22T10:33:57.347Z,10.70
2023-02-22T10:35:59.392Z,19.03
2023-02-22T10:38:25.444Z,15.17
2023-02-22T10:40:33.145Z,12.00
2023-02-22T10:42:35.460Z,12.90
2023-02-22T10:44:39.274Z,10.07
2023-02-22T10:46:43.156Z,12.53
2023-02-22T10:48:49.046Z,12.80
2023-02-22T10:51:03.756Z,13.20
2023-02-22T10:53:05.557Z,13.57
2023-02-22T10:55:15.635Z,14.80
2023-02-22T10:57:22.906Z,19.40
2023-02-22T10:59:36.408Z,12.50
2023-02-22T11:01:40.826Z,14.43
2023-02-22T11:03:42.889Z,11.40
2023-02-22T11:05:44.864Z,20.00
2023-02-22T11:07:46.564Z,14.13
2023-02-22T11:09:53.022Z,15.67
2023-02-22T11:12:32.672Z,12.33
2023-02-22T11:14:34.576Z,13.40
2023-02-22T11:16:36.333Z,12.73
2023-02-22T11:18:38.346Z,14.63
2023-02-22T11:20:40.139Z,15.10
2023-02-22T11:22:42.796Z,12.10
2023-02-22T11:24:50.926Z,11.53
2023-02-22T11:27:01.256Z,19.03
2023-02-22T11:29:11.429Z,12.70
2023-02-22T11:31:18.357Z,14.77
2023-02-22T11:33:23.946Z,14.37
2023-02-22T11:35:28.748Z,16.00
2023-02-22T11:37:36.502Z,12.03
2023-02-22T11:39:38.454Z,14.73
2023-02-22T11:41:40.300Z,14.10
2023-02-22T11:43:47.480Z,15.47
2023-02-22T11:46:09.850Z,13.00
2023-02-22T11:48:21.059Z,15.50
2023-02-22T11:50:28.329Z,13.20
2023-02-22T11:52:45.954Z,12.50
2023-02-22T11:54:57.340Z,16.40
2023-02-22T11:57:07.219Z,12.90
2023-02-22T11:59:27.938Z,18.37
2023-02-22T12:01:43.608Z,15.70
2023-02-22T12:04:06.584Z,16.80
2023-02-22T12:06:44.290Z,13.80
2023-02-22T12:09:08.010Z,14.30
2023-02-22T12:11:34.959Z,13.60
2023-02-22T12:14:01.751Z,20.53
2023-02-22T12:16:33.889Z,13.83
2023-02-22T12:18:38.679Z,13.53
2023-02-22T12:20:54.962Z,12.93
2023-02-22T12:23:07.190Z,12.20
2023-02-22T12:25:29.555Z,14.87
2023-02-22T12:27:42.705Z,16.43
2023-02-22T12:29:58.451Z,16.53
2023-02-22T12:32:15.034Z,18.80
2023-02-22T12:34:20.197Z,15.90
2023-02-22T12:36:38.130Z,14.87
2023-02-22T12:38:46.836Z,15.93
2023-02-22T12:41:05.525Z,13.50
2023-02-22T12:43:23.668Z,14.17
2023-02-22T12:45:36.856Z,18.47
2023-02-22T12:47:48.077Z,15.73
2023-02-22T12:50:02.150Z,13.30
2023-02-22T12:52:39.068Z,12.33
2023-02-22T12:54:48.075Z,12.60
2023-02-22T12:57:09.817Z,29.17
2023-02-22T12:59:33.313Z,36.10
2023-02-22T13:01:40.418Z,18.70
2023-02-22T13:03:44.182Z,17.37
2023-02-22T13:05:49.616Z,16.07
2023-02-22T13:08:26.775Z,13.53
2023-02-22T13:10:34.747Z,15.80
2023-02-22T13:12:51.307Z,14.53
2023-02-22T13:15:10.942Z,17.83
2023-02-22T13:17:27.263Z,15.50
2023-02-22T13:19:53.209Z,14.17
2023-02-22T13:22:06.649Z,19.37
2023-02-22T13:24:26.200Z,17.17
2023-02-22T13:26:53.784Z,33.97
2023-02-22T13:29:16.443Z,14.07
2023-02-22T13:31:40.989Z,12.63
2023-02-22T13:33:53.938Z,12.83
2023-02-22T13:36:13.613Z,13.27
2023-02-22T13:38:46.899Z,14.47
2023-02-22T13:40:51.585Z,15.33
2023-02-22T13:43:22.614Z,14.07
2023-02-22T13:45:27.203Z,17.97
2023-02-22T13:48:05.091Z,18.90
2023-02-22T13:50:47.801Z,16.90
2023-02-22T13:52:51.975Z,13.17
2023-02-22T13:54:58.929Z,20.00
2023-02-22T13:57:03.205Z,16.83
2023-02-22T13:59:05.192Z,18.93
2023-02-22T14:01:06.817Z,15.67
2023-02-22T14:03:14.018Z,12.30
2023-02-22T14:05:38.237Z,16.03
2023-02-22T14:07:48.480Z,14.23
2023-02-22T14:09:52.432Z,18.17
2023-02-22T14:11:56.817Z,13.83
2023-02-22T14:14:00.985Z,12.57
2023-02-22T14:16:03.000Z,12.10
2023-02-22T14:18:07.441Z,13.40
2023-02-22T14:20:21.290Z,15.90
2023-02-22T14:22:29.011Z,13.83
2023-02-22T14:24:47.997Z,21.87
2023-02-22T14:27:03.628Z,15.90
2023-02-22T14:29:08.781Z,17.87
2023-02-22T14:31:33.376Z,15.83
2023-02-22T14:33:57.917Z,17.93
2023-02-22T14:35:59.657Z,17.90
2023-02-22T14:38:03.177Z,14.73
2023-02-22T14:40:25.788Z,15.17
2023-02-22T14:42:27.544Z,17.20
2023-02-22T14:44:51.449Z,19.97
2023-02-22T14:46:56.976Z,17.60
2023-02-22T14:49:04.265Z,16.97
2023-02-22T14:51:22.406Z,16.60
2023-02-22T14:53:40.059Z,18.90
2023-02-22T14:56:06.854Z,18.03
2023-02-22T14:58:35.056Z,17.93
2023-02-22T15:00:43.410Z,18.17
2023-02-22T15:02:46.302Z,21.07
2023-02-22T15:04:53.079Z,19.00
2023-02-22T15:06:56.243Z,19.83
2023-02-22T15:09:12.873Z,17.60
2023-02-22T15:11:32.419Z,18.33
2023-02-22T15:13:34.342Z,18.83
2023-02-22T15:15:49.685Z,20.27
2023-02-22T15:17:56.606Z,21.53
2023-02-22T15:19:59.196Z,22.90
2023-02-22T15:22:02.554Z,20.33
2023-02-22T15:24:07.797Z,23.57
2023-02-22T15:26:38.817Z,16.33
2023-02-22T15:28:42.493Z,20.63
2023-02-22T15:30:44.386Z,19.93
2023-02-22T15:33:02.695Z,27.10
2023-02-22T15:35:19.868Z,16.10
2023-02-22T15:37:29.464Z,20.10
2023-02-22T15:39:34.451Z,14.77
2023-02-22T15:41:36.408Z,22.20
2023-02-22T15:43:39.984Z,19.47
2023-02-22T15:45:43.292Z,20.73
2023-02-22T15:47:45.866Z,20.33
2023-02-22T15:50:18.743Z,34.00
2023-02-22T15:52:24.494Z,22.90
2023-02-22T15:54:28.026Z,22.00
2023-02-22T15:56:31.827Z,18.73
2023-02-22T15:58:34.324Z,19.30
2023-02-22T16:00:38.371Z,19.30
2023-02-22T16:02:42.436Z,21.67
2023-02-22T16:04:54.561Z,25.63
2023-02-22T16:07:17.082Z,20.77
2023-02-22T16:09:26.078Z,27.63
2023-02-22T16:11:45.374Z,24.47
2023-02-22T16:13:53.366Z,19.83
2023-02-22T16:16:21.395Z,20.80
2023-02-22T16:18:41.425Z,22.10
2023-02-22T16:20:43.228Z,19.30
2023-02-22T16:22:49.311Z,18.27
2023-02-22T16:24:52.452Z,19.53
2023-02-22T16:27:04.503Z,29.83
2023-02-22T16:29:09.411Z,23.53
2023-02-22T16:31:11.212Z,23.70
2023-02-22T16:33:16.530Z,23.83
2023-02-22T16:35:18.359Z,96.37
2023-02-22T16:37:24.688Z,30.37
2023-02-22T16:39:27.734Z,42.07
2023-02-22T16:41:30.904Z,38.73
2023-02-22T16:43:33.903Z,28.63
2023-02-22T16:45:36.124Z,26.27
2023-02-22T16:47:38.241Z,22.93
2023-02-22T16:49:39.903Z,44.10
2023-02-22T16:51:55.271Z,37.33
2023-02-22T16:53:57.031Z,33.57
2023-02-22T16:56:03.971Z,25.53
2023-02-22T16:58:06.271Z,55.07
2023-02-22T17:00:31.104Z,57.93
2023-02-22T17:02:32.951Z,46.27
2023-02-22T17:04:34.900Z,22.73
2023-02-22T17:06:36.577Z,18.53
2023-02-22T17:08:40.033Z,24.90
2023-02-22T17:10:42.182Z,23.40
2023-02-22T17:12:53.386Z,24.00
2023-02-22T17:14:55.211Z,22.77
2023-02-22T17:16:59.184Z,20.50
2023-02-22T17:19:00.872Z,21.00
2023-02-22T17:21:03.601Z,23.47
2023-02-22T17:23:10.745Z,19.63
2023-02-22T17:25:22.292Z,19.70
2023-02-22T17:27:23.956Z,20.47
2023-02-22T17:29:27.836Z,21.67
2023-02-22T17:31:31.057Z,19.33
2023-02-22T17:33:34.914Z,28.80
2023-02-22T17:35:39.430Z,24.37
2023-02-22T17:37:41.155Z,22.90
2023-02-22T17:39:42.893Z,24.40
2023-02-22T17:41:44.924Z,23.53
2023-02-22T17:43:47.081Z,29.33
2023-02-22T17:45:49.375Z,38.23
2023-02-22T17:47:52.833Z,33.93
2023-02-22T17:49:54.525Z,29.23
2023-02-22T17:51:56.220Z,38.53
2023-02-22T17:53:57.931Z,26.03
2023-02-22T17:56:04.445Z,36.37
2023-02-22T17:58:07.614Z,22.47
2023-02-22T18:00:15.610Z,25.40
2023-02-22T18:02:17.381Z,21.07
2023-02-22T18:04:19.130Z,22.37
2023-02-22T18:06:25.181Z,24.77
2023-02-22T18:08:28.928Z,29.20
2023-02-22T18:10:30.943Z,54.97
2023-02-22T18:12:32.713Z,25.70
2023-02-22T18:14:34.723Z,36.33
2023-02-22T18:16:38.885Z,45.47
2023-02-22T18:18:40.596Z,30.60
2023-02-22T18:20:47.128Z,51.23
2023-02-22T18:22:48.866Z,50.90
2023-02-22T18:24:50.708Z,52.27
2023-02-22T18:26:53.176Z,48.60
2023-02-22T18:28:54.959Z,34.27
2023-02-22T18:30:59.012Z,33.17
2023-02-22T18:33:00.878Z,29.20
2023-02-22T18:35:02.748Z,27.07
2023-02-22T18:37:07.426Z,22.90
2023-02-22T18:39:11.696Z,21.50
2023-02-22T18:41:15.731Z,18.67
2023-02-22T18:43:17.832Z,18.93
2023-02-22T18:45:20.291Z,18.67
2023-02-22T18:47:22.388Z,18.20
2023-02-22T18:49:26.189Z,24.37
2023-02-22T18:51:28.067Z,27.10
2023-02-22T18:53:30.418Z,26.20
2023-02-22T18:55:34.947Z,18.67
2023-02-22T18:57:36.874Z,21.57
2023-02-22T18:59:39.847Z,21.20
2023-02-22T19:01:48.690Z,22.47
2023-02-22T19:03:51.829Z,24.40
2023-02-22T19:05:54.721Z,27.17
2023-02-22T19:07:56.440Z,24.27
2023-02-22T19:09:58.383Z,21.60
2023-02-22T19:12:00.051Z,22.60
2023-02-22T19:14:05.774Z,23.53
2023-02-22T19:16:08.730Z,23.63
2023-02-22T19:18:10.608Z,23.03
2023-02-22T19:20:12.462Z,24.37
2023-02-22T19:22:15.214Z,25.40
2023-02-22T19:24:19.145Z,28.30
2023-02-22T19:26:26.476Z,24.27
2023-02-22T19:28:33.942Z,22.23
2023-02-22T19:30:35.801Z,24.13
2023-02-22T19:32:37.924Z,29.90
2023-02-22T19:34:39.698Z,23.53
2023-02-22T19:36:46.793Z,24.80
2023-02-22T19:38:48.945Z,21.80
2023-02-22T19:40:51.197Z,23.60
2023-02-22T19:42:55.276Z,22.00
2023-02-22T19:44:56.926Z,21.30
2023-02-22T19:46:58.721Z,21.57
2023-02-22T19:49:01.813Z,26.43
2023-02-22T19:51:09.167Z,22.93
2023-02-22T19:53:14.011Z,24.40
2023-02-22T19:55:15.847Z,20.17
2023-02-22T19:57:18.393Z,24.70
2023-02-22T19:59:23.506Z,23.87
2023-02-22T20:01:29.137Z,23.37
2023-02-22T20:03:34.999Z,23.77
2023-02-22T20:05:40.851Z,37.97
2023-02-22T20:07:43.511Z,31.00
2023-02-22T20:09:45.205Z,35.30
2023-02-22T20:11:48.110Z,28.37
2023-02-22T20:13:50.199Z,31.27
2023-02-22T20:15:51.870Z,23.73
2023-02-22T20:17:54.992Z,27.60
2023-02-22T20:19:56.620Z,32.10
2023-02-22T20:22:00.281Z,32.57
2023-02-22T20:24:08.531Z,26.30
2023-02-22T20:26:22.468Z,32.80
2023-02-22T20:28:24.324Z,30.00
2023-02-22T20:30:26.138Z,27.67
2023-02-22T20:32:30.570Z,35.37
2023-02-22T20:34:33.563Z,33.30
2023-02-22T20:36:38.540Z,30.10
2023-02-22T20:38:40.959Z,27.20
2023-02-22T20:40:43.714Z,32.70
2023-02-22T20:42:47.693Z,26.07
2023-02-22T20:44:50.627Z,35.13
2023-02-22T20:46:52.439Z,31.33
2023-02-22T20:48:55.580Z,33.20
2023-02-22T20:51:04.403Z,32.30
2023-02-22T20:53:06.138Z,34.23
2023-02-22T20:55:11.473Z,34.93
2023-02-22T20:57:16.011Z,39.97
2023-02-22T20:59:19.786Z,31.53
2023-02-22T21:01:22.726Z,27.80
2023-02-22T21:03:24.497Z,29.20
2023-02-22T21:05:26.187Z,33.17
2023-02-22T21:07:28.549Z,29.07
2023-02-22T21:09:32.361Z,34.43
2023-02-22T21:11:34.977Z,35.60
2023-02-22T21:13:36.639Z,34.60
2023-02-22T21:15:43.499Z,33.50
2023-02-22T21:17:47.585Z,32.70
2023-02-22T21:19:49.487Z,35.03
2023-02-22T21:21:56.447Z,36.03
2023-02-22T21:24:02.357Z,35.57
2023-02-22T21:26:04.298Z,33.00
2023-02-22T21:28:05.982Z,39.87
2023-02-22T21:30:08.767Z,35.40
2023-02-22T21:32:12.811Z,34.63
2023-02-22T21:34:17.599Z,33.33
2023-02-22T21:36:21.062Z,38.03
2023-02-22T21:38:22.923Z,38.60
2023-02-22T21:40:26.258Z,40.27
2023-02-22T21:42:27.863Z,36.70
2023-02-22T21:44:29.894Z,39.70
2023-02-22T21:46:31.774Z,43.80
2023-02-22T21:48:34.842Z,47.67
2023-02-22T21:50:37.730Z,41.37
2023-02-22T21:52:39.899Z,46.83
2023-02-22T21:54:42.483Z,40.97
2023-02-22T21:56:44.359Z,42.83
2023-02-22T21:58:47.499Z,46.33
2023-02-22T22:00:49.223Z,46.57
2023-02-22T22:02:51.009Z,42.77
2023-02-22T22:04:52.679Z,41.43
2023-02-22T22:06:56.593Z,42.43
2023-02-22T22:08:59.950Z,43.00
2023-02-22T22:11:03.250Z,46.30
2023-02-22T22:13:09.196Z,52.67
2023-02-22T22:15:16.346Z,46.63
2023-02-22T22:17:18.025Z,41.57
2023-02-22T22:19:20.672Z,43.40
2023-02-22T22:21:24.269Z,45.83
2023-02-22T22:23:26.593Z,42.83
2023-02-22T22:25:28.839Z,47.47
2023-02-22T22:27:30.596Z,46.77
2023-02-22T22:29:34.480Z,52.80
2023-02-22T22:31:36.586Z,47.93
2023-02-22T22:33:41.507Z,44.27
2023-02-22T22:35:43.230Z,46.23
2023-02-22T22:37:51.183Z,53.50
2023-02-22T22:39:52.951Z,47.30
2023-02-22T22:41:54.868Z,43.80
2023-02-22T22:43:56.831Z,51.33
2023-02-22T22:46:03.333Z,47.10
2023-02-22T22:48:05.217Z,50.90
2023-02-22T22:50:07.687Z,50.13
2023-02-22T22:52:10.473Z,52.70
2023-02-22T22:54:12.342Z,49.10
2023-02-22T22:56:18.430Z,49.30
2023-02-22T22:58:20.046Z,63.33
2023-02-22T23:00:29.555Z,52.90
2023-02-22T23:02:31.355Z,49.83
2023-02-22T23:04:33.149Z,49.63
2023-02-22T23:06:38.729Z,48.77
2023-02-22T23:08:43.569Z,51.30
2023-02-22T23:10:46.676Z,47.77
2023-02-22T23:12:48.373Z,49.77
2023-02-22T23:14:51.984Z,46.77
2023-02-22T23:16:59.964Z,46.53
2023-02-22T23:19:01.658Z,42.20
2023-02-22T23:21:05.395Z,44.53
2023-02-22T23:23:14.494Z,44.77
2023-02-22T23:25:16.424Z,46.80
2023-02-22T23:27:18.985Z,54.83
2023-02-22T23:29:22.916Z,49.63
2023-02-22T23:31:25.083Z,46.87
2023-02-22T23:33:26.808Z,49.43
2023-02-22T23:35:28.503Z,42.63
2023-02-22T23:37:35.557Z,49.40
2023-02-22T23:39:37.904Z,43.20
2023-02-22T23:41:39.758Z,55.43
2023-02-22T23:43:41.816Z,44.47
2023-02-22T23:45:44.623Z,46.73
2023-02-22T23:47:50.420Z,43.40
2023-02-22T23:49:52.105Z,40.17
2023-02-22T23:51:54.240Z,47.13
2023-02-22T23:53:56.839Z,44.30
2023-02-22T23:56:00.321Z,43.17
2023-02-22T23:58:03.365Z,41.80
